createdAt,value
2018-09-24T00:01:45.056Z,101958.50
2018-09-24T00:04:13.220Z,101963.19
2018-09-24T00:06:41.228Z,101972.30
2018-09-24T00:09:09.839Z,101971.09
2018-09-24T00:11:38.068Z,101972.97
2018-09-24T00:14:07.060Z,101969.78
2018-09-24T00:16:35.068Z,101974.13
2018-09-24T00:19:03.260Z,101979.81
2018-09-24T00:21:31.268Z,101984.16
2018-09-24T00:23:59.271Z,101983.74
2018-09-24T00:26:27.283Z,101991.17
2018-09-24T00:28:55.295Z,101991.23
2018-09-24T00:31:23.301Z,101992.84
2018-09-24T00:33:51.383Z,101990.25
2018-09-24T00:36:19.403Z,101994.56
2018-09-24T00:38:47.424Z,101997.11
2018-09-24T00:41:15.446Z,101996.66
2018-09-24T00:43:43.451Z,102003.55
2018-09-24T00:46:11.484Z,102017.41
2018-09-24T00:48:39.540Z,102017.83
2018-09-24T00:51:07.548Z,102026.58
2018-09-24T00:53:35.560Z,102035.90
2018-09-24T00:56:03.569Z,102037.91
2018-09-24T00:58:31.588Z,102053.95
2018-09-24T01:00:59.599Z,102055.88
2018-09-24T01:03:27.607Z,102048.61
2018-09-24T01:05:55.608Z,102050.91
2018-09-24T01:08:23.609Z,102065.71
2018-09-24T01:10:51.631Z,102054.92
2018-09-24T01:13:19.638Z,102061.36
2018-09-24T01:15:47.643Z,102070.41
2018-09-24T01:18:15.795Z,102071.88
2018-09-24T01:20:44.335Z,102078.03
2018-09-24T01:23:12.341Z,102079.27
2018-09-24T01:25:40.495Z,102088.42
2018-09-24T01:28:08.507Z,102091.89
2018-09-24T01:30:36.523Z,102093.33
2018-09-24T01:33:04.920Z,102105.45
2018-09-24T01:35:32.936Z,102106.74
2018-09-24T01:38:01.091Z,102102.05
2018-09-24T01:40:29.095Z,102113.27
2018-09-24T01:42:57.100Z,102119.88
2018-09-24T01:45:25.111Z,102123.72
2018-09-24T01:47:53.127Z,102137.58
2018-09-24T01:50:21.159Z,102133.32
2018-09-24T01:52:49.182Z,102131.64
2018-09-24T01:55:18.072Z,102137.02
2018-09-24T01:57:46.141Z,102139.20
2018-09-24T02:00:14.155Z,102145.65
2018-09-24T02:02:42.160Z,102145.13
2018-09-24T02:05:14.427Z,102148.17
2018-09-24T02:07:42.707Z,102151.81
2018-09-24T02:10:10.721Z,102157.02
2018-09-24T02:12:39.175Z,102159.95
2018-09-24T02:15:07.240Z,102154.42
2018-09-24T02:17:35.244Z,102150.41
2018-09-24T02:20:03.259Z,102157.66
2018-09-24T02:22:31.436Z,102161.12
2018-09-24T02:25:00.028Z,102164.52
2018-09-24T02:27:28.499Z,102165.52
2018-09-24T02:29:56.579Z,102170.22
2018-09-24T02:32:24.696Z,102171.02
2018-09-24T02:34:55.168Z,102164.52
2018-09-24T02:37:23.175Z,102170.97
2018-09-24T02:39:51.179Z,102171.94
2018-09-24T02:42:19.407Z,102182.36
2018-09-24T02:44:53.859Z,102184.62
2018-09-24T02:47:21.989Z,102187.25
2018-09-24T02:49:50.000Z,102202.04
2018-09-24T02:52:18.008Z,102203.03
2018-09-24T02:54:46.022Z,102210.88
2018-09-24T02:57:14.259Z,102217.88
2018-09-24T02:59:45.104Z,102214.56
2018-09-24T03:02:13.119Z,102213.22
2018-09-24T03:04:41.146Z,102227.95
2018-09-24T03:07:10.430Z,102229.56
2018-09-24T03:09:38.987Z,102236.81
2018-09-24T03:12:07.300Z,102236.43
2018-09-24T03:14:35.383Z,102237.63
2018-09-24T03:17:03.443Z,102236.69
2018-09-24T03:19:31.461Z,102242.80
2018-09-24T03:21:59.588Z,102245.48
2018-09-24T03:24:28.600Z,102245.84
2018-09-24T03:26:56.640Z,102256.73
2018-09-24T03:29:25.827Z,102256.80
2018-09-24T03:31:53.928Z,102254.70
2018-09-24T03:34:22.099Z,102261.74
2018-09-24T03:36:50.580Z,102263.95
2018-09-24T03:39:19.111Z,102259.73
2018-09-24T03:41:47.437Z,102265.00
2018-09-24T03:44:15.406Z,102267.21
2018-09-24T03:46:43.436Z,102266.41
2018-09-24T03:49:11.915Z,102272.09
2018-09-24T03:51:40.132Z,102276.48
2018-09-24T03:54:09.708Z,102283.41
2018-09-24T03:56:37.724Z,102284.77
2018-09-24T03:59:07.135Z,102284.78
2018-09-24T04:01:35.076Z,102290.94
2018-09-24T04:04:08.499Z,102295.27
2018-09-24T04:06:41.923Z,102298.67
2018-09-24T04:09:15.246Z,102301.34
2018-09-24T04:11:48.939Z,102303.11
2018-09-24T04:14:22.400Z,102304.41
2018-09-24T04:16:56.144Z,102306.15
2018-09-24T04:19:29.611Z,102308.80
2018-09-24T04:22:02.889Z,102315.73
2018-09-24T04:24:36.392Z,102323.04
2018-09-24T04:27:10.835Z,102323.09
2018-09-24T04:29:44.297Z,102328.77
2018-09-24T04:32:17.555Z,102328.77
2018-09-24T04:34:50.831Z,102333.16
2018-09-24T04:37:24.451Z,102329.73
2018-09-24T04:39:58.124Z,102334.13
2018-09-24T04:42:31.584Z,102337.20
2018-09-24T04:45:04.883Z,102342.25
2018-09-24T04:47:38.295Z,102349.55
2018-09-24T04:50:11.863Z,102353.14
2018-09-24T04:52:45.440Z,102352.42
2018-09-24T04:55:18.687Z,102359.83
2018-09-24T04:57:52.401Z,102362.52
2018-09-24T05:00:25.690Z,102360.31
2018-09-24T05:02:59.027Z,102367.67
2018-09-24T05:05:32.459Z,102362.04
2018-09-24T05:08:05.836Z,102361.13
2018-09-24T05:10:39.136Z,102365.13
2018-09-24T05:13:13.180Z,102370.31
2018-09-24T05:15:46.389Z,102371.12
2018-09-24T05:18:19.880Z,102372.43
2018-09-24T05:20:53.795Z,102375.90
2018-09-24T05:23:27.185Z,102381.09
2018-09-24T05:26:00.604Z,102384.12
2018-09-24T05:28:33.864Z,102388.02
2018-09-24T05:31:07.135Z,102392.87
2018-09-24T05:33:40.525Z,102391.05
2018-09-24T05:36:13.792Z,102396.29
2018-09-24T05:38:47.175Z,102394.51
2018-09-24T05:41:20.461Z,102396.58
2018-09-24T05:43:54.127Z,102399.95
2018-09-24T05:46:27.411Z,102409.04
2018-09-24T05:49:00.884Z,102418.55
2018-09-24T05:51:34.459Z,102426.74
2018-09-24T05:54:08.141Z,102425.48
2018-09-24T05:56:41.939Z,102433.33
2018-09-24T05:59:15.316Z,102432.03
2018-09-24T06:01:48.737Z,102430.26
2018-09-24T06:04:22.231Z,102431.55
2018-09-24T06:06:55.551Z,102439.19
2018-09-24T06:09:28.856Z,102440.78
2018-09-24T06:12:02.255Z,102438.23
2018-09-24T06:14:35.680Z,102455.84
2018-09-24T06:17:09.316Z,102458.39
2018-09-24T06:19:42.611Z,102468.30
2018-09-24T06:22:16.021Z,102467.34
2018-09-24T06:24:49.337Z,102471.14
2018-09-24T06:27:22.683Z,102473.30
2018-09-24T06:29:56.051Z,102471.03
2018-09-24T06:32:30.373Z,102483.02
2018-09-24T06:35:03.968Z,102479.93
2018-09-24T06:37:37.401Z,102490.59
2018-09-24T06:40:10.992Z,102494.78
2018-09-24T06:42:44.431Z,102494.25
2018-09-24T06:45:17.847Z,102498.92
2018-09-24T06:47:51.091Z,102497.02
2018-09-24T06:50:24.538Z,102502.83
2018-09-24T06:52:57.888Z,102509.62
2018-09-24T06:55:31.420Z,102508.16
2018-09-24T06:58:04.839Z,102520.12
2018-09-24T07:00:38.381Z,102515.56
2018-09-24T07:03:11.885Z,102517.52
2018-09-24T07:05:45.212Z,102519.41
2018-09-24T07:08:19.483Z,102523.63
2018-09-24T07:10:52.904Z,102524.77
2018-09-24T07:13:26.144Z,102531.55
2018-09-24T07:15:59.735Z,102540.42
2018-09-24T07:18:33.251Z,102536.78
2018-09-24T07:21:06.538Z,102538.77
2018-09-24T07:23:40.252Z,102541.09
2018-09-24T07:26:13.591Z,102553.45
2018-09-24T07:28:47.551Z,102563.14
2018-09-24T07:31:27.651Z,102562.91
2018-09-24T07:34:00.989Z,102570.41
2018-09-24T07:36:34.399Z,102573.14
2018-09-24T07:39:07.915Z,102582.89
2018-09-24T07:41:41.631Z,102581.34
2018-09-24T07:44:14.939Z,102586.23
2018-09-24T07:46:48.311Z,102588.16
2018-09-24T07:49:21.771Z,102596.60
2018-09-24T07:51:55.368Z,102599.48
2018-09-24T07:54:28.767Z,102605.70
2018-09-24T07:57:02.203Z,102603.25
2018-09-24T07:59:35.876Z,102604.23
2018-09-24T08:02:09.336Z,102604.01
2018-09-24T08:04:42.639Z,102604.60
2018-09-24T08:07:15.973Z,102620.95
2018-09-24T08:09:49.787Z,102619.85
2018-09-24T08:12:23.031Z,102623.95
2018-09-24T08:14:56.459Z,102620.66
2018-09-24T08:17:29.887Z,102627.83
2018-09-24T08:20:03.236Z,102631.47
2018-09-24T08:22:36.623Z,102641.65
2018-09-24T08:25:10.147Z,102641.94
2018-09-24T08:27:43.479Z,102648.67
2018-09-24T08:30:16.899Z,102651.29
2018-09-24T08:32:50.284Z,102657.03
2018-09-24T08:35:23.707Z,102653.27
2018-09-24T08:37:57.524Z,102653.91
2018-09-24T08:40:30.767Z,102656.74
2018-09-24T08:43:04.219Z,102660.28
2018-09-24T08:45:37.748Z,102657.72
2018-09-24T08:48:11.176Z,102652.19
2018-09-24T08:50:44.608Z,102654.57
2018-09-24T08:53:17.942Z,102665.88
2018-09-24T08:55:51.211Z,102665.61
2018-09-24T08:58:24.544Z,102658.11
2018-09-24T09:00:57.984Z,102662.51
2018-09-24T09:03:31.496Z,102657.50
2018-09-24T09:06:05.067Z,102671.34
2018-09-24T09:08:38.760Z,102674.17
2018-09-24T09:11:12.357Z,102685.34
2018-09-24T09:13:45.700Z,102691.64
2018-09-24T09:16:19.140Z,102699.31
2018-09-24T09:18:52.555Z,102683.24
2018-09-24T09:21:26.203Z,102692.67
2018-09-24T09:23:59.551Z,102696.72
2018-09-24T09:26:33.151Z,102700.54
2018-09-24T09:29:06.543Z,102690.63
2018-09-24T09:31:39.896Z,102710.10
2018-09-24T09:34:13.351Z,102690.75
2018-09-24T09:36:46.899Z,102696.41
2018-09-24T09:39:20.353Z,102697.34
2018-09-24T09:41:53.631Z,102695.91
2018-09-24T09:44:27.176Z,102707.34
2018-09-24T09:47:00.640Z,102702.05
2018-09-24T09:49:34.035Z,102705.13
2018-09-24T09:52:07.323Z,102706.98
2018-09-24T09:54:40.623Z,102717.08
2018-09-24T09:57:13.913Z,102712.13
2018-09-24T09:59:47.329Z,102708.42
2018-09-24T10:02:20.648Z,102711.16
2018-09-24T10:04:54.105Z,102708.20
2018-09-24T10:07:27.528Z,102707.29
2018-09-24T10:10:00.805Z,102711.61
2018-09-24T10:12:34.260Z,102712.62
2018-09-24T10:15:07.684Z,102712.44
2018-09-24T10:17:41.020Z,102708.68
2018-09-24T10:20:14.551Z,102715.54
2018-09-24T10:22:47.959Z,102716.50
2018-09-24T10:25:21.419Z,102719.27
2018-09-24T10:27:54.692Z,102710.42
2018-09-24T10:30:28.024Z,102704.57
2018-09-24T10:33:01.478Z,102713.31
2018-09-24T10:35:34.999Z,102719.44
2018-09-24T10:38:08.465Z,102718.81
2018-09-24T10:40:41.755Z,102717.50
2018-09-24T10:43:15.044Z,102724.91
2018-09-24T10:45:48.463Z,102727.98
2018-09-24T10:48:21.780Z,102708.80
2018-09-24T10:50:55.208Z,102714.31
2018-09-24T10:53:28.719Z,102720.78
2018-09-24T10:56:02.412Z,102721.26
2018-09-24T10:58:35.723Z,102729.06
2018-09-24T11:01:10.120Z,102731.87
2018-09-24T11:03:43.432Z,102741.14
2018-09-24T11:06:16.680Z,102739.58
2018-09-24T11:08:49.971Z,102739.67
2018-09-24T11:11:23.619Z,102750.09
2018-09-24T11:13:57.048Z,102750.86
2018-09-24T11:16:30.754Z,102741.67
2018-09-24T11:19:03.932Z,102746.59
2018-09-24T11:21:37.264Z,102740.78
2018-09-24T11:24:10.556Z,102745.64
2018-09-24T11:26:44.016Z,102741.59
2018-09-24T11:29:17.346Z,102744.52
2018-09-24T11:31:50.848Z,102742.43
2018-09-24T11:34:24.288Z,102751.75
2018-09-24T11:36:57.772Z,102750.38
2018-09-24T11:39:31.324Z,102745.85
2018-09-24T11:42:04.611Z,102746.47
2018-09-24T11:44:37.924Z,102750.22
2018-09-24T11:47:11.750Z,102749.09
2018-09-24T11:49:45.002Z,102756.68
2018-09-24T11:52:18.295Z,102753.91
2018-09-24T11:54:51.703Z,102748.21
2018-09-24T11:57:25.455Z,102763.17
2018-09-24T11:59:58.791Z,102755.91
2018-09-24T12:02:32.228Z,102762.30
2018-09-24T12:05:05.671Z,102756.73
2018-09-24T12:07:39.266Z,102764.38
2018-09-24T12:10:12.830Z,102761.45
2018-09-24T12:12:46.181Z,102774.20
2018-09-24T12:15:22.633Z,102759.22
2018-09-24T12:17:56.116Z,102755.44
2018-09-24T12:20:29.424Z,102768.34
2018-09-24T12:23:02.890Z,102759.88
2018-09-24T12:25:36.286Z,102764.05
2018-09-24T12:28:09.808Z,102758.01
2018-09-24T12:30:43.121Z,102757.50
2018-09-24T12:33:16.613Z,102765.85
2018-09-24T12:35:50.139Z,102760.38
2018-09-24T12:38:23.550Z,102765.09
2018-09-24T12:40:57.111Z,102765.92
2018-09-24T12:43:30.408Z,102766.91
2018-09-24T12:46:03.690Z,102764.73
2018-09-24T12:48:37.464Z,102761.54
2018-09-24T12:51:10.880Z,102758.27
2018-09-24T12:53:44.552Z,102770.27
2018-09-24T12:56:17.936Z,102774.13
2018-09-24T12:58:51.263Z,102754.40
2018-09-24T13:01:24.671Z,102754.04
2018-09-24T13:03:58.327Z,102764.59
2018-09-24T13:06:31.656Z,102757.49
2018-09-24T13:09:05.207Z,102756.18
2018-09-24T13:11:38.796Z,102769.61
2018-09-24T13:14:12.168Z,102762.92
2018-09-24T13:16:45.448Z,102772.16
2018-09-24T13:19:19.068Z,102841.66
2018-09-24T13:21:52.633Z,102822.17
2018-09-24T13:24:26.131Z,102818.69
2018-09-24T13:26:59.575Z,102817.89
2018-09-24T13:29:32.923Z,102819.07
2018-09-24T13:32:06.176Z,102819.02
2018-09-24T13:34:39.812Z,102818.45
2018-09-24T13:37:13.212Z,102815.45
2018-09-24T13:39:46.915Z,102803.97
2018-09-24T13:42:20.229Z,102806.31
2018-09-24T13:44:53.818Z,102816.82
2018-09-24T13:47:27.143Z,102802.56
2018-09-24T13:50:00.460Z,102804.63
2018-09-24T13:52:33.735Z,102815.94
2018-09-24T13:55:07.283Z,102806.52
2018-09-24T13:57:40.723Z,102798.48
2018-09-24T14:00:14.029Z,102807.75
2018-09-24T14:02:47.429Z,102799.73
2018-09-24T14:05:20.963Z,102798.77
2018-09-24T14:07:54.395Z,102791.95
2018-09-24T14:10:27.716Z,102795.60
2018-09-24T14:13:01.127Z,102794.28
2018-09-24T14:15:34.496Z,102801.47
2018-09-24T14:18:08.264Z,102819.02
2018-09-24T14:20:41.655Z,102806.22
2018-09-24T14:23:15.451Z,102815.80
2018-09-24T14:25:48.865Z,102819.30
2018-09-24T14:28:22.336Z,102818.92
2018-09-24T14:30:55.696Z,102821.59
2018-09-24T14:33:28.975Z,102829.72
2018-09-24T14:36:02.260Z,102842.94
2018-09-24T14:38:35.892Z,102869.75
2018-09-24T14:41:09.195Z,102878.31
2018-09-24T14:43:42.692Z,102864.81
2018-09-24T14:46:16.011Z,102869.59
2018-09-24T14:48:49.443Z,102852.39
2018-09-24T14:51:22.869Z,102845.19
2018-09-24T14:53:56.214Z,102840.32
2018-09-24T14:56:29.680Z,102837.83
2018-09-24T14:59:03.565Z,102841.16
2018-09-24T15:01:55.105Z,102839.08
2018-09-24T15:04:28.700Z,102841.05
2018-09-24T15:07:02.115Z,102847.45
2018-09-24T15:09:35.600Z,102843.52
2018-09-24T15:12:08.999Z,102859.80
2018-09-24T15:14:42.388Z,102849.41
2018-09-24T15:17:15.794Z,102844.30
2018-09-24T15:19:49.300Z,102848.27
2018-09-24T15:22:22.591Z,102848.75
2018-09-24T15:24:55.959Z,102849.27
2018-09-24T15:27:29.343Z,102847.72
2018-09-24T15:30:02.944Z,102846.42
2018-09-24T15:32:36.235Z,102835.63
2018-09-24T15:35:11.162Z,102843.34
2018-09-24T15:37:44.916Z,102841.00
2018-09-24T15:40:18.215Z,102841.00
2018-09-24T15:42:51.435Z,102846.48
2018-09-24T15:45:24.860Z,102850.94
2018-09-24T15:50:37.191Z,102843.80
2018-09-24T15:53:11.129Z,102848.66
2018-09-24T15:55:44.409Z,102849.42
2018-09-24T15:58:17.867Z,102847.53
2018-09-24T16:00:51.379Z,102853.48
2018-09-24T16:03:24.651Z,102850.69
2018-09-24T16:05:58.060Z,102851.88
2018-09-24T16:08:31.660Z,102847.66
2018-09-24T16:11:05.430Z,102859.22
2018-09-24T16:13:38.808Z,102856.56
2018-09-24T16:16:12.780Z,102857.46
2018-09-24T16:18:46.255Z,102855.19
2018-09-24T16:21:19.620Z,102861.94
2018-09-24T16:23:52.960Z,102863.05
2018-09-24T16:26:26.397Z,102860.08
2018-09-24T16:28:59.914Z,102862.32
2018-09-24T16:31:33.228Z,102867.33
2018-09-24T16:34:06.892Z,102865.63
2018-09-24T16:36:40.192Z,102873.56
2018-09-24T16:39:14.362Z,102885.36
2018-09-24T16:41:47.891Z,102882.56
2018-09-24T16:44:21.447Z,102885.31
2018-09-24T16:46:54.809Z,102887.66
2018-09-24T16:49:28.124Z,102888.68
2018-09-24T16:52:01.570Z,102922.39
2018-09-24T16:54:34.836Z,102933.92
2018-09-24T16:57:08.224Z,102933.36
2018-09-24T16:59:41.692Z,102919.80
2018-09-24T17:02:15.109Z,102904.89
2018-09-24T17:04:48.588Z,102912.93
2018-09-24T17:07:22.068Z,102909.37
2018-09-24T17:09:55.343Z,102919.22
2018-09-24T17:12:28.752Z,102926.64
2018-09-24T17:15:02.484Z,102927.75
2018-09-24T17:17:36.315Z,102923.97
2018-09-24T17:20:09.715Z,102930.63
2018-09-24T17:22:43.040Z,102932.86
2018-09-24T17:25:16.328Z,102937.72
2018-09-24T17:27:49.753Z,102938.97
2018-09-24T17:30:23.136Z,102941.14
2018-09-24T17:32:56.437Z,102940.77
2018-09-24T17:35:29.938Z,102937.35
2018-09-24T17:38:03.324Z,102941.75
2018-09-24T17:40:36.575Z,102939.63
2018-09-24T17:43:10.736Z,102942.32
2018-09-24T17:45:44.178Z,102948.80
2018-09-24T17:48:17.420Z,102944.94
2018-09-24T17:50:50.716Z,102946.30
2018-09-24T17:53:24.160Z,102954.20
2018-09-24T17:55:57.516Z,102953.88
2018-09-24T17:58:31.104Z,102956.12
2018-09-24T18:01:04.502Z,102959.72
2018-09-24T18:03:37.827Z,102968.92
2018-09-24T18:06:11.088Z,102967.27
2018-09-24T18:08:44.379Z,102980.81
2018-09-24T18:11:17.700Z,102977.88
2018-09-24T18:13:51.084Z,102982.67
2018-09-24T18:16:24.516Z,102986.60
2018-09-24T18:18:57.936Z,102991.44
2018-09-24T18:21:31.217Z,102995.73
2018-09-24T18:24:04.516Z,102999.98
2018-09-24T18:26:37.961Z,103000.84
2018-09-24T18:29:11.263Z,103000.63
2018-09-24T18:31:44.513Z,103003.75
2018-09-24T18:34:17.811Z,103006.69
2018-09-24T18:36:51.228Z,103003.33
2018-09-24T18:39:24.635Z,103007.68
2018-09-24T18:41:58.928Z,103010.11
2018-09-24T18:44:32.358Z,103013.94
2018-09-24T18:47:05.760Z,103016.27
2018-09-24T18:49:40.086Z,103027.47
2018-09-24T18:52:13.463Z,103025.80
2018-09-24T18:54:46.872Z,103031.39
2018-09-24T18:57:20.288Z,103028.55
2018-09-24T18:59:54.236Z,103035.41
2018-09-24T19:02:28.032Z,103041.17
2018-09-24T19:05:01.313Z,103039.00
2018-09-24T19:07:34.900Z,103046.39
2018-09-24T19:10:08.306Z,103041.60
2018-09-24T19:12:41.723Z,103041.13
2018-09-24T19:15:15.125Z,103041.11
2018-09-24T19:17:48.567Z,103040.63
2018-09-24T19:20:22.005Z,103047.55
2018-09-24T19:22:55.456Z,103040.63
2018-09-24T19:25:28.875Z,103044.54
2018-09-24T19:28:02.297Z,103042.41
2018-09-24T19:30:35.704Z,103048.95
2018-09-24T19:33:09.321Z,103050.80
2018-09-24T19:35:42.673Z,103049.98
2018-09-24T19:38:16.004Z,103060.52
2018-09-24T19:40:49.624Z,103061.48
2018-09-24T19:43:23.065Z,103060.73
2018-09-24T19:45:56.459Z,103063.43
2018-09-24T19:48:29.789Z,103067.41
2018-09-24T19:51:03.244Z,103062.77
2018-09-24T19:53:36.590Z,103060.65
2018-09-24T19:56:10.408Z,103060.30
2018-09-24T19:58:43.871Z,103057.36
2018-09-24T20:01:17.356Z,103052.20
2018-09-24T20:03:50.596Z,103057.98
2018-09-24T20:06:23.897Z,103059.01
2018-09-24T20:08:57.362Z,103069.54
2018-09-24T20:11:30.789Z,103070.97
2018-09-24T20:14:04.076Z,103068.91
2018-09-24T20:16:37.585Z,103071.25
2018-09-24T20:19:10.968Z,103075.69
2018-09-24T20:21:44.273Z,103078.88
2018-09-24T20:24:17.724Z,103076.43
2018-09-24T20:26:51.030Z,103075.22
2018-09-24T20:29:24.271Z,103078.78
2018-09-24T20:31:57.739Z,103083.16
2018-09-24T20:34:31.260Z,103081.91
2018-09-24T20:37:04.648Z,103090.68
2018-09-24T20:39:38.016Z,103077.27
2018-09-24T20:42:11.948Z,103086.86
2018-09-24T20:44:45.261Z,103090.38
2018-09-24T20:47:18.540Z,103087.86
2018-09-24T20:49:52.012Z,103089.20
2018-09-24T20:52:25.400Z,103097.05
2018-09-24T20:54:58.797Z,103101.91
2018-09-24T20:57:32.036Z,103108.54
2018-09-24T21:00:05.712Z,103111.15
2018-09-24T21:02:40.519Z,103106.41
2018-09-24T21:05:13.780Z,103112.92
2018-09-24T21:07:47.316Z,103116.00
2018-09-24T21:10:20.726Z,103121.21
2018-09-24T21:12:53.987Z,103110.91
2018-09-24T21:15:27.383Z,103123.45
2018-09-24T21:18:00.846Z,103133.47
2018-09-24T21:20:34.084Z,103143.09
2018-09-24T21:23:07.516Z,103140.92
2018-09-24T21:25:41.072Z,103145.70
2018-09-24T21:28:14.464Z,103144.91
2018-09-24T21:30:47.759Z,103148.45
2018-09-24T21:33:21.150Z,103151.56
2018-09-24T21:35:54.572Z,103152.43
2018-09-24T21:38:27.861Z,103157.70
2018-09-24T21:41:01.126Z,103156.04
2018-09-24T21:43:34.415Z,103145.63
2018-09-24T21:46:07.882Z,103142.55
2018-09-24T21:48:41.230Z,103148.59
2018-09-24T21:51:14.515Z,103145.63
2018-09-24T21:53:47.911Z,103150.40
2018-09-24T21:56:21.175Z,103153.84
2018-09-24T21:58:54.572Z,103154.30
2018-09-24T22:01:27.955Z,103155.61
2018-09-24T22:04:01.237Z,103156.98
2018-09-24T22:06:34.654Z,103157.84
2018-09-24T22:09:07.939Z,103158.72
2018-09-24T22:11:41.200Z,103162.19
2018-09-24T22:14:14.623Z,103166.09
2018-09-24T22:16:47.897Z,103165.69
2018-09-24T22:19:32.608Z,103166.95
2018-09-24T22:22:05.899Z,103164.78
2018-09-24T22:24:39.341Z,103165.66
2018-09-24T22:27:12.888Z,103168.26
2018-09-24T22:29:46.147Z,103174.36
2018-09-24T22:32:19.416Z,103179.17
2018-09-24T22:34:52.683Z,103183.51
2018-09-24T22:37:26.063Z,103182.67
2018-09-24T22:39:59.488Z,103183.57
2018-09-24T22:42:32.908Z,103187.55
2018-09-24T22:45:06.173Z,103184.54
2018-09-24T22:47:39.594Z,103188.51
2018-09-24T22:50:12.832Z,103189.78
2018-09-24T22:52:46.228Z,103188.94
2018-09-24T22:55:19.591Z,103193.31
2018-09-24T22:57:52.856Z,103195.51
2018-09-24T23:00:26.188Z,103199.45
2018-09-24T23:02:59.751Z,103205.08
2018-09-24T23:05:33.191Z,103202.54
2018-09-24T23:08:06.463Z,103202.11
2018-09-24T23:10:39.722Z,103206.01
2018-09-24T23:13:13.003Z,103202.11
2018-09-24T23:15:46.688Z,103203.50
2018-09-24T23:18:20.103Z,103212.63
2018-09-24T23:20:53.537Z,103211.80
2018-09-24T23:23:26.811Z,103207.49
2018-09-24T23:26:00.220Z,103208.33
2018-09-24T23:28:33.637Z,103209.25
2018-09-24T23:31:06.914Z,103211.45
2018-09-24T23:33:40.185Z,103206.74
2018-09-24T23:36:14.348Z,103207.61
2018-09-24T23:38:47.711Z,103209.34
2018-09-24T23:41:21.099Z,103204.20
2018-09-24T23:43:54.501Z,103209.00
2018-09-24T23:46:27.794Z,103200.73
2018-09-24T23:49:01.176Z,103196.37
2018-09-24T23:51:34.575Z,103195.96
2018-09-24T23:54:07.984Z,103198.12
2018-09-24T23:56:41.560Z,103199.00
2018-09-24T23:59:14.870Z,103202.50
